Time;durP1;ratioP1;P1;durP2;ratioP2;P2;SDS_P1;SDS_P2;PMS_P1;PMS_P2;Temp;Humidity;BMP_temperature;BMP_pressure;BME280_temperature;BME280_humidity;BME280_pressure;Samples;Min_cycle;Max_cycle;Signal;HPM_P1;HPM_P2
2023/04/12 00:00:34;;;;;;;7.47;5.23;;;7.80;99.90;;;;;;4226968;28;20028;-60
2023/04/12 00:02:36;;;;;;;7.00;4.50;;;7.80;99.90;;;;;;4226942;28;20035;-73
2023/04/12 00:04:38;;;;;;;8.97;5.07;;;7.80;99.90;;;;;;4227313;28;20471;-61
2023/04/12 00:06:39;;;;;;;8.53;4.97;;;7.80;99.90;;;;;;4226940;28;20051;-61
2023/04/12 00:08:41;;;;;;;8.00;4.73;;;7.80;99.90;;;;;;4226899;28;20031;-61
2023/04/12 00:10:42;;;;;;;7.20;5.00;;;7.80;99.90;;;;;;4227477;28;20073;-61
2023/04/12 00:12:44;;;;;;;12.13;5.60;;;7.80;99.90;;;;;;4226975;28;20450;-61
2023/04/12 00:14:45;;;;;;;7.43;5.17;;;7.80;99.90;;;;;;4227154;28;20077;-61
2023/04/12 00:16:46;;;;;;;12.07;5.30;;;7.80;99.90;;;;;;4227031;28;20070;-60
2023/04/12 00:18:47;;;;;;;7.60;4.67;;;7.80;99.90;;;;;;4226666;28;20066;-63
2023/04/12 00:20:49;;;;;;;9.10;5.10;;;7.80;99.90;;;;;;4227283;28;20036;-60
2023/04/12 00:22:52;;;;;;;8.33;4.70;;;7.80;99.90;;;;;;4226588;28;20433;-65
2023/04/12 00:24:53;;;;;;;7.60;5.50;;;7.70;99.90;;;;;;4227498;28;20089;-60
2023/04/12 00:26:55;;;;;;;6.97;4.30;;;7.70;99.90;;;;;;4227515;28;20093;-60
2023/04/12 00:28:56;;;;;;;7.47;4.60;;;7.70;99.90;;;;;;4231278;28;20064;-60
2023/04/12 00:30:57;;;;;;;6.60;4.50;;;7.70;99.90;;;;;;4229483;28;20097;-60
2023/04/12 00:32:58;;;;;;;6.53;4.70;;;7.70;99.90;;;;;;4229817;28;20052;-58
2023/04/12 00:35:00;;;;;;;7.23;4.33;;;7.70;99.90;;;;;;4229687;28;20059;-60
2023/04/12 00:37:01;;;;;;;8.37;4.73;;;7.70;99.90;;;;;;4229762;28;20120;-61
2023/04/12 00:39:02;;;;;;;8.83;5.50;;;7.70;99.90;;;;;;4230506;28;20072;-61
2023/04/12 00:41:03;;;;;;;7.00;4.70;;;7.70;99.90;;;;;;4229020;28;20112;-73
2023/04/12 00:43:05;;;;;;;9.07;5.27;;;7.70;99.90;;;;;;4229868;28;20020;-60
2023/04/12 00:45:07;;;;;;;7.37;4.60;;;7.70;99.90;;;;;;4229772;28;20028;-60
2023/04/12 00:47:08;;;;;;;6.93;4.20;;;7.70;99.90;;;;;;4229213;28;20120;-61
2023/04/12 00:49:11;;;;;;;10.50;5.13;;;7.70;99.90;;;;;;4229362;28;20035;-61
2023/04/12 00:51:12;;;;;;;8.63;4.97;;;7.70;99.90;;;;;;4229643;28;20051;-60
2023/04/12 00:53:14;;;;;;;8.27;4.33;;;7.70;99.90;;;;;;4229479;28;20061;-60
2023/04/12 00:55:15;;;;;;;7.13;4.63;;;7.70;99.90;;;;;;4229896;28;20043;-60
2023/04/12 00:57:16;;;;;;;7.57;4.83;;;7.70;99.90;;;;;;4229816;28;20031;-60
2023/04/12 00:59:17;;;;;;;5.93;4.53;;;7.70;99.90;;;;;;4230210;28;20047;-61
2023/04/12 01:01:20;;;;;;;9.37;4.67;;;7.70;99.90;;;;;;4229559;28;20608;-61
2023/04/12 01:03:22;;;;;;;6.97;4.67;;;7.70;99.90;;;;;;4229569;28;20463;-74
2023/04/12 01:05:24;;;;;;;9.50;5.20;;;7.70;99.90;;;;;;4229100;28;20065;-60
2023/04/12 01:07:50;;;;;;;9.33;4.27;;;7.70;99.90;;;;;;4230636;28;20418;-61
2023/04/12 01:10:11;;;;;;;7.07;4.43;;;7.60;99.90;;;;;;4228429;28;20035;-60
2023/04/12 01:12:31;;;;;;;8.10;4.57;;;7.70;99.90;;;;;;4230471;28;20028;-60
2023/04/12 01:14:46;;;;;;;6.07;4.13;;;7.60;99.90;;;;;;4229366;28;20028;-61
2023/04/12 01:16:50;;;;;;;6.20;4.43;;;7.60;99.90;;;;;;4230493;28;20072;-61
2023/04/12 01:18:58;;;;;;;7.77;4.33;;;7.60;99.90;;;;;;4228492;28;20032;-61
2023/04/12 01:21:09;;;;;;;8.03;4.90;;;7.60;99.90;;;;;;4230178;28;20475;-60
2023/04/12 01:23:32;;;;;;;7.63;4.60;;;7.50;99.90;;;;;;4228177;28;20051;-61
2023/04/12 01:25:47;;;;;;;7.83;4.90;;;7.50;99.90;;;;;;4228553;28;20143;-70
2023/04/12 01:28:07;;;;;;;10.57;5.83;;;7.50;99.90;;;;;;4210273;28;20051;-62
2023/04/12 01:30:12;;;;;;;7.97;4.85;;;7.40;99.90;;;;;;4228888;28;20047;-70
2023/04/12 01:32:14;;;;;;;8.20;5.80;;;7.40;99.90;;;;;;4227923;28;20035;-60
2023/04/12 01:34:16;;;;;;;8.40;5.53;;;7.40;99.90;;;;;;4228910;28;20036;-60
2023/04/12 01:36:20;;;;;;;8.03;5.13;;;7.30;99.90;;;;;;4228460;28;20085;-61
2023/04/12 01:38:22;;;;;;;7.77;5.00;;;7.30;99.90;;;;;;4228507;28;20068;-60
2023/04/12 01:40:26;;;;;;;8.63;4.60;;;7.30;99.90;;;;;;4227607;28;20040;-60
2023/04/12 01:42:28;;;;;;;7.80;4.77;;;7.20;99.90;;;;;;4229062;28;20105;-61
2023/04/12 01:44:29;;;;;;;7.73;4.40;;;7.20;99.90;;;;;;4228225;28;20039;-60
2023/04/12 01:46:31;;;;;;;8.30;5.07;;;7.20;99.90;;;;;;4229563;28;20052;-62
2023/04/12 01:48:32;;;;;;;6.47;3.97;;;7.20;99.90;;;;;;4228452;28;20085;-60
2023/04/12 01:50:40;;;;;;;6.40;3.93;;;7.20;99.90;;;;;;4229644;28;20023;-63
2023/04/12 01:52:51;;;;;;;7.13;3.70;;;7.20;99.90;;;;;;4227865;28;20036;-58
2023/04/12 01:54:56;;;;;;;6.47;4.00;;;7.20;99.90;;;;;;4229405;28;20069;-60
2023/04/12 01:57:01;;;;;;;7.53;4.60;;;7.20;99.90;;;;;;4227738;28;20035;-61
2023/04/12 01:59:03;;;;;;;4.37;3.13;;;7.20;99.90;;;;;;4228092;28;20081;-60
2023/04/12 02:01:06;;;;;;;9.70;4.37;;;7.20;99.90;;;;;;4228102;28;20031;-62
2023/04/12 02:03:08;;;;;;;7.37;3.97;;;7.20;99.90;;;;;;4228565;28;20039;-61
2023/04/12 02:05:10;;;;;;;6.87;3.97;;;7.20;99.90;;;;;;4229104;28;20035;-60
2023/04/12 02:07:12;;;;;;;7.03;3.90;;;7.20;99.90;;;;;;4229042;28;20640;-60
2023/04/12 02:09:14;;;;;;;4.93;3.40;;;7.20;99.90;;;;;;4229720;28;20069;-62
2023/04/12 02:11:15;;;;;;;4.93;3.23;;;7.30;99.90;;;;;;4228193;28;20080;-61
2023/04/12 02:13:17;;;;;;;5.83;4.03;;;7.30;99.90;;;;;;4228476;28;20036;-61
2023/04/12 02:15:20;;;;;;;5.77;3.57;;;7.30;99.90;;;;;;4227201;28;20039;-58
2023/04/12 02:17:21;;;;;;;6.40;4.07;;;7.30;99.90;;;;;;4229380;28;20873;-61
2023/04/12 02:19:22;;;;;;;7.53;4.03;;;7.20;99.90;;;;;;4228243;28;20031;-61
2023/04/12 02:21:25;;;;;;;8.53;4.23;;;7.30;99.90;;;;;;4228609;28;20437;-60
2023/04/12 02:23:26;;;;;;;7.57;4.07;;;7.30;99.90;;;;;;4227731;28;20080;-61
2023/04/12 02:25:27;;;;;;;6.50;4.13;;;7.30;99.90;;;;;;4227927;28;20052;-61
2023/04/12 02:27:28;;;;;;;5.50;3.67;;;7.30;99.90;;;;;;4227819;28;20028;-59
2023/04/12 02:29:30;;;;;;;8.83;4.70;;;7.30;99.90;;;;;;4227313;28;20092;-62
2023/04/12 02:31:31;;;;;;;6.93;3.73;;;7.30;99.90;;;;;;4225117;28;20032;-61
2023/04/12 02:33:33;;;;;;;5.67;4.00;;;7.30;99.90;;;;;;4227606;28;20552;-63
2023/04/12 02:35:35;;;;;;;5.63;3.30;;;7.30;99.90;;;;;;4227605;28;20051;-62
2023/04/12 02:37:37;;;;;;;7.77;3.87;;;7.30;99.90;;;;;;4227696;28;20085;-62
2023/04/12 02:41:53;;;;;;;6.10;3.63;;;7.40;99.90;;;;;;4600948;23;20104;-61
2023/04/12 02:43:54;;;;;;;5.27;3.33;;;7.50;99.90;;;;;;4227849;28;20805;-62
2023/04/12 02:45:55;;;;;;;7.33;3.57;;;7.40;99.90;;;;;;4228612;28;20135;-62
2023/04/12 02:47:56;;;;;;;6.70;3.53;;;7.50;99.90;;;;;;4227426;28;20060;-62
2023/04/12 02:49:57;;;;;;;7.40;3.93;;;7.50;99.90;;;;;;4228143;28;20020;-61
2023/04/12 02:51:58;;;;;;;5.93;3.43;;;7.50;99.90;;;;;;4228008;28;20084;-61
2023/04/12 02:54:00;;;;;;;6.43;3.43;;;7.60;99.90;;;;;;4227960;28;20459;-61
2023/04/12 02:56:03;;;;;;;9.07;3.57;;;7.60;99.90;;;;;;4228240;28;20040;-61
2023/04/12 02:58:05;;;;;;;4.30;3.23;;;7.60;99.90;;;;;;4227244;28;20065;-62
2023/04/12 03:00:15;;;;;;;6.50;3.37;;;7.70;99.90;;;;;;4228585;28;20540;-62
2023/04/12 03:02:16;;;;;;;;;;;7.70;99.90;;;;;;4227350;28;20053;-61
2023/04/12 03:04:17;;;;;;;;;;;7.70;99.90;;;;;;4210634;28;19914;-62
2023/04/12 03:06:18;;;;;;;;;;;7.70;99.90;;;;;;4226977;28;19920;-62
2023/04/12 03:08:22;;;;;;;;;;;7.80;99.90;;;;;;4229039;28;19912;-62
2023/04/12 03:10:23;;;;;;;6.87;3.27;;;7.80;99.90;;;;;;4227624;28;19912;-62
2023/04/12 03:12:24;;;;;;;6.23;4.03;;;7.80;99.90;;;;;;4228148;28;20092;-62
2023/04/12 03:14:25;;;;;;;4.97;3.57;;;7.80;99.90;;;;;;4227536;28;20502;-62
2023/04/12 03:16:28;;;;;;;7.77;3.00;;;7.80;99.90;;;;;;4228612;28;20380;-62
2023/04/12 03:18:29;;;;;;;6.87;3.13;;;7.80;99.90;;;;;;4226178;28;20043;-62
2023/04/12 03:20:30;;;;;;;4.03;2.90;;;7.80;99.90;;;;;;4227329;28;20058;-62
2023/04/12 03:22:31;;;;;;;4.93;3.50;;;7.80;99.90;;;;;;4227683;28;20498;-61
2023/04/12 03:24:33;;;;;;;4.73;3.20;;;7.80;99.90;;;;;;4227550;28;20157;-62
2023/04/12 03:26:34;;;;;;;7.13;3.40;;;7.90;99.90;;;;;;4227893;28;20028;-61
2023/04/12 03:28:36;;;;;;;6.63;3.73;;;7.90;99.90;;;;;;4226958;28;20024;-62
2023/04/12 03:30:37;;;;;;;3.97;3.13;;;7.90;99.90;;;;;;4228071;28;20548;-60
2023/04/12 03:32:41;;;;;;;7.23;4.03;;;7.90;99.90;;;;;;4226443;28;20085;-60
2023/04/12 03:34:44;;;;;;;5.53;3.60;;;7.90;99.90;;;;;;4227999;28;20035;-61
2023/04/12 03:36:45;;;;;;;8.20;3.33;;;7.90;99.90;;;;;;4226746;28;20031;-61
2023/04/12 03:38:46;;;;;;;4.97;2.90;;;7.90;99.90;;;;;;4227921;28;20085;-61
2023/04/12 03:40:48;;;;;;;5.53;3.40;;;7.90;99.90;;;;;;4226003;28;20051;-60
2023/04/12 03:42:49;;;;;;;5.67;3.23;;;7.90;99.90;;;;;;4227159;28;20498;-60
2023/04/12 03:44:51;;;;;;;7.03;3.60;;;7.90;99.90;;;;;;4226998;28;20113;-61
2023/04/12 03:46:53;;;;;;;9.73;3.60;;;7.90;99.90;;;;;;4226847;28;20055;-61
2023/04/12 03:48:55;;;;;;;5.43;3.20;;;7.90;99.90;;;;;;4227199;28;20032;-61
2023/04/12 03:50:58;;;;;;;4.90;3.00;;;7.90;99.90;;;;;;4227370;28;20103;-61
2023/04/12 03:52:59;;;;;;;4.80;3.00;;;7.90;99.90;;;;;;4226200;28;20080;-61
2023/04/12 03:55:00;;;;;;;5.33;2.90;;;8.00;99.90;;;;;;4227895;28;20027;-62
2023/04/12 03:57:02;;;;;;;4.07;3.03;;;8.00;99.90;;;;;;4208717;28;20109;-61
2023/04/12 03:59:07;;;;;;;3.80;3.13;;;8.00;99.90;;;;;;4226871;28;20089;-62
2023/04/12 04:01:08;;;;;;;5.90;3.07;;;8.00;99.90;;;;;;4227083;28;20507;-62
2023/04/12 04:03:10;;;;;;;3.77;2.73;;;8.00;99.90;;;;;;4229746;28;20429;-62
2023/04/12 04:05:12;;;;;;;6.13;3.20;;;8.10;99.90;;;;;;4230431;28;20097;-64
2023/04/12 04:07:13;;;;;;;4.73;3.33;;;8.10;99.90;;;;;;4230008;28;20039;-62
2023/04/12 04:09:14;;;;;;;4.60;3.30;;;8.10;99.90;;;;;;4230620;28;20088;-63
2023/04/12 04:11:16;;;;;;;6.83;3.13;;;8.00;99.90;;;;;;4229854;28;20031;-62
2023/04/12 04:13:17;;;;;;;6.53;3.63;;;8.00;99.90;;;;;;4229842;28;20024;-61
2023/04/12 04:15:18;;;;;;;5.73;3.43;;;8.00;99.90;;;;;;4229922;28;20031;-64
2023/04/12 04:17:19;;;;;;;6.80;3.67;;;8.00;99.90;;;;;;4226809;28;20098;-62
2023/04/12 04:19:20;;;;;;;7.23;3.40;;;8.00;99.90;;;;;;4228694;28;20036;-61
2023/04/12 04:21:22;;;;;;;6.97;3.97;;;8.10;99.90;;;;;;4229959;28;20031;-61
2023/04/12 04:23:24;;;;;;;6.60;3.40;;;8.10;99.90;;;;;;4229554;28;20024;-68
2023/04/12 04:25:30;;;;;;;10.90;3.67;;;8.10;99.90;;;;;;4231053;28;20073;-63
2023/04/12 04:27:33;;;;;;;10.63;3.73;;;8.10;99.90;;;;;;4229129;28;20039;-61
2023/04/12 04:29:35;;;;;;;6.20;3.43;;;8.10;99.90;;;;;;4229257;28;20069;-65
2023/04/12 04:31:36;;;;;;;7.87;4.33;;;8.10;99.90;;;;;;4229036;28;20028;-65
2023/04/12 04:33:38;;;;;;;4.67;3.30;;;8.20;99.90;;;;;;4229837;28;20056;-61
2023/04/12 04:35:40;;;;;;;6.50;3.90;;;8.20;99.90;;;;;;4229591;28;20008;-63
2023/04/12 04:37:42;;;;;;;6.70;3.40;;;8.10;99.90;;;;;;4226561;28;20047;-68
2023/04/12 04:39:43;;;;;;;6.13;3.73;;;8.20;99.90;;;;;;4228902;28;20068;-62
2023/04/12 04:41:45;;;;;;;7.80;3.97;;;8.20;99.90;;;;;;4228129;28;20092;-62
2023/04/12 04:43:47;;;;;;;6.63;3.50;;;8.20;99.90;;;;;;4230372;28;20047;-63
2023/04/12 04:45:53;;;;;;;5.83;3.80;;;8.20;99.90;;;;;;4228806;28;20036;-67
2023/04/12 04:47:55;;;;;;;5.07;3.47;;;8.20;99.90;;;;;;4229930;28;20109;-61
2023/04/12 04:49:59;;;;;;;6.93;3.43;;;8.30;99.90;;;;;;4228008;28;20028;-62
2023/04/12 04:52:00;;;;;;;6.73;4.37;;;8.30;99.90;;;;;;4229432;28;20100;-61
2023/04/12 04:54:01;;;;;;;6.50;3.73;;;8.30;99.90;;;;;;4228843;28;20035;-61
2023/04/12 04:56:02;;;;;;;5.17;3.77;;;8.30;99.90;;;;;;4229286;28;20036;-62
2023/04/12 04:58:07;;;;;;;6.97;3.80;;;8.30;99.90;;;;;;4228176;28;20100;-62
2023/04/12 05:00:15;;;;;;;4.97;3.43;;;8.40;99.90;;;;;;4228953;28;20486;-67
2023/04/12 05:02:16;;;;;;;5.53;3.73;;;8.40;99.90;;;;;;4228417;28;20051;-63
2023/04/12 05:04:17;;;;;;;7.53;3.30;;;8.40;99.90;;;;;;4229176;28;20039;-63
2023/04/12 05:06:18;;;;;;;9.10;3.80;;;8.40;99.90;;;;;;4229237;28;20369;-63
2023/04/12 05:08:19;;;;;;;8.53;3.73;;;8.40;99.90;;;;;;4229388;28;20031;-59
2023/04/12 05:10:21;;;;;;;10.50;3.60;;;8.40;99.90;;;;;;4229023;28;20036;-61
2023/04/12 05:12:22;;;;;;;8.83;4.57;;;8.40;99.90;;;;;;4227778;28;20478;-61
2023/04/12 05:14:23;;;;;;;7.73;4.27;;;8.50;99.90;;;;;;4228889;28;20475;-60
2023/04/12 05:16:24;;;;;;;6.90;3.87;;;8.50;99.90;;;;;;4229654;28;20024;-62
2023/04/12 05:18:25;;;;;;;5.70;3.63;;;8.50;99.90;;;;;;4228613;28;20032;-71
2023/04/12 05:20:27;;;;;;;5.70;3.30;;;8.50;99.90;;;;;;4228230;28;20080;-60
2023/04/12 05:22:28;;;;;;;4.70;3.53;;;8.50;99.90;;;;;;4229582;28;20040;-61
2023/04/12 05:24:29;;;;;;;5.63;3.57;;;8.50;99.90;;;;;;4228679;28;20043;-67
2023/04/12 05:26:32;;;;;;;6.37;3.80;;;8.50;99.90;;;;;;4229659;28;20097;-61
2023/04/12 05:28:33;;;;;;;9.03;3.77;;;8.50;99.90;;;;;;4228589;28;20019;-62
2023/04/12 05:30:34;;;;;;;6.23;3.40;;;8.50;99.90;;;;;;4229470;28;20043;-66
2023/04/12 05:32:35;;;;;;;6.50;3.47;;;8.60;99.90;;;;;;4228401;28;20688;-64
2023/04/12 05:34:36;;;;;;;11.07;4.40;;;8.60;99.90;;;;;;4228758;28;20441;-61
2023/04/12 05:36:37;;;;;;;7.00;3.50;;;8.60;99.90;;;;;;4229088;28;20451;-62
2023/04/12 05:38:39;;;;;;;6.27;3.67;;;8.60;99.90;;;;;;4229460;28;20081;-63
2023/04/12 05:40:42;;;;;;;4.93;3.53;;;8.70;99.90;;;;;;4229341;28;20023;-60
2023/04/12 05:42:43;;;;;;;6.87;3.40;;;8.70;99.90;;;;;;4228909;28;20586;-64
2023/04/12 05:44:47;;;;;;;5.30;3.20;;;8.70;99.90;;;;;;4228838;28;20032;-63
2023/04/12 05:46:48;;;;;;;7.20;3.90;;;8.70;99.90;;;;;;4228600;28;20047;-64
2023/04/12 05:48:50;;;;;;;9.43;4.50;;;8.70;99.90;;;;;;4229711;28;20023;-62
2023/04/12 05:50:52;;;;;;;10.97;4.07;;;8.80;99.90;;;;;;4228538;28;20032;-61
2023/04/12 05:52:54;;;;;;;3.87;2.87;;;8.80;99.90;;;;;;4228672;28;20031;-66
2023/04/12 05:54:55;;;;;;;5.13;2.63;;;8.80;99.90;;;;;;4228605;28;20073;-62
2023/04/12 05:56:56;;;;;;;4.83;2.90;;;8.80;99.90;;;;;;4228384;28;20036;-63
2023/04/12 05:58:59;;;;;;;5.53;2.23;;;8.80;99.90;;;;;;4228211;28;20032;-62
2023/04/12 06:01:01;;;;;;;4.53;2.20;;;8.80;99.90;;;;;;4228051;28;20117;-68
2023/04/12 06:03:02;;;;;;;6.83;2.33;;;8.80;99.90;;;;;;4227370;28;20071;-63
2023/04/12 06:05:04;;;;;;;7.33;2.50;;;8.80;99.90;;;;;;4228767;28;20699;-60
2023/04/12 06:07:06;;;;;;;2.73;2.10;;;8.80;99.90;;;;;;4228265;28;20471;-61
2023/04/12 06:09:08;;;;;;;4.70;2.10;;;8.80;99.90;;;;;;4228829;28;20032;-63
2023/04/12 06:11:10;;;;;;;4.53;2.03;;;8.80;99.90;;;;;;4228507;28;20012;-64
2023/04/12 06:13:12;;;;;;;3.63;2.37;;;8.80;99.90;;;;;;4228429;28;20072;-68
2023/04/12 06:15:13;;;;;;;4.83;2.37;;;8.80;99.90;;;;;;4229237;28;20015;-65
2023/04/12 06:17:14;;;;;;;5.23;2.10;;;8.80;99.90;;;;;;4227705;28;20043;-63
2023/04/12 06:19:15;;;;;;;3.53;2.03;;;8.70;99.90;;;;;;4228960;28;20070;-62
2023/04/12 06:21:18;;;;;;;3.43;2.37;;;8.70;99.90;;;;;;4227967;28;20027;-63
2023/04/12 06:23:19;;;;;;;3.53;1.60;;;8.80;99.90;;;;;;4228416;28;20102;-62
2023/04/12 06:25:21;;;;;;;3.13;1.20;;;8.80;99.90;;;;;;4226069;28;20391;-64
2023/04/12 06:27:24;;;;;;;6.23;1.30;;;8.80;99.90;;;;;;4229050;28;20089;-63
2023/04/12 06:29:25;;;;;;;1.80;0.83;;;8.80;99.90;;;;;;4227351;28;20040;-63
2023/04/12 06:31:26;;;;;;;1.40;1.03;;;8.90;99.90;;;;;;4228905;28;20421;-67
2023/04/12 06:33:27;;;;;;;1.30;0.90;;;8.90;99.90;;;;;;4227966;28;20028;-62
2023/04/12 06:35:29;;;;;;;0.90;0.80;;;9.00;99.90;;;;;;4229068;28;20092;-62
2023/04/12 06:37:30;;;;;;;0.80;0.80;;;9.00;99.90;;;;;;4227866;28;20061;-62
2023/04/12 06:39:31;;;;;;;4.80;1.20;;;9.10;99.90;;;;;;4228017;28;20090;-71
2023/04/12 06:41:32;;;;;;;1.53;0.97;;;9.20;99.90;;;;;;4227514;28;20807;-64
2023/04/12 06:43:34;;;;;;;1.90;1.00;;;9.30;99.90;;;;;;4228092;28;20019;-67
2023/04/12 06:45:35;;;;;;;1.13;0.83;;;9.30;99.90;;;;;;4228587;28;20027;-62
2023/04/12 06:47:36;;;;;;;2.60;0.80;;;9.50;99.90;;;;;;4227550;28;20065;-62
2023/04/12 06:49:37;;;;;;;1.63;1.03;;;9.70;99.90;;;;;;4227877;28;20035;-62
2023/04/12 06:51:39;;;;;;;2.07;0.60;;;10.10;99.90;;;;;;4227451;28;20462;-67
2023/04/12 06:53:40;;;;;;;6.77;0.67;;;10.20;99.90;;;;;;4228715;28;20433;-63
2023/04/12 06:55:41;;;;;;;1.00;0.80;;;10.30;99.90;;;;;;4227496;28;20020;-62
2023/04/12 06:57:43;;;;;;;1.00;0.60;;;10.40;99.90;;;;;;4227582;28;20433;-64
2023/04/12 06:59:44;;;;;;;2.87;1.20;;;10.50;99.90;;;;;;4227306;28;20019;-62
2023/04/12 07:01:45;;;;;;;2.30;0.80;;;10.50;99.90;;;;;;4228383;28;20019;-61
2023/04/12 07:03:46;;;;;;;1.60;0.80;;;10.50;99.90;;;;;;4227496;28;20024;-63
2023/04/12 07:05:48;;;;;;;2.47;0.63;;;10.50;99.90;;;;;;4228731;28;20024;-63
2023/04/12 07:07:49;;;;;;;3.60;1.00;;;10.70;99.90;;;;;;4227311;28;20084;-64
2023/04/12 07:09:51;;;;;;;2.00;0.90;;;11.10;99.90;;;;;;4227586;28;20547;-64
2023/04/12 07:11:52;;;;;;;2.67;1.20;;;11.20;99.90;;;;;;4227288;28;20060;-62
2023/04/12 07:13:54;;;;;;;2.63;1.20;;;11.20;99.90;;;;;;4227133;28;20040;-64
2023/04/12 07:15:55;;;;;;;1.23;1.10;;;11.30;99.90;;;;;;4227273;28;20087;-63
2023/04/12 07:17:56;;;;;;;2.83;1.97;;;11.10;99.90;;;;;;4227532;28;20119;-63
2023/04/12 07:19:57;;;;;;;2.80;1.30;;;11.00;99.90;;;;;;4227039;28;20081;-62
2023/04/12 07:21:58;;;;;;;3.47;1.70;;;11.00;99.90;;;;;;4226444;28;20036;-68
2023/04/12 07:24:00;;;;;;;2.03;1.37;;;10.90;99.90;;;;;;4228122;28;20032;-63
2023/04/12 07:26:01;;;;;;;4.53;1.83;;;10.90;99.90;;;;;;4227030;28;20136;-64
2023/04/12 07:28:03;;;;;;;3.67;2.80;;;11.00;99.90;;;;;;4227831;28;20111;-65
2023/04/12 07:30:04;;;;;;;5.70;2.37;;;10.90;99.90;;;;;;4191182;28;20037;-65
2023/04/12 07:32:06;;;;;;;2.23;1.50;;;11.00;99.90;;;;;;4228019;28;20084;-63
2023/04/12 07:34:08;;;;;;;6.57;2.23;;;11.10;99.90;;;;;;4226986;28;20027;-64
2023/04/12 07:36:10;;;;;;;4.33;2.10;;;11.00;99.90;;;;;;4227792;28;20035;-63
2023/04/12 07:38:11;;;;;;;5.17;2.20;;;11.00;99.90;;;;;;4227006;28;20035;-67
2023/04/12 07:40:12;;;;;;;2.47;1.87;;;11.00;99.90;;;;;;4227637;28;20036;-62
2023/04/12 07:42:13;;;;;;;3.00;1.50;;;11.00;99.90;;;;;;4225781;28;20105;-66
2023/04/12 07:44:14;;;;;;;1.60;1.40;;;11.00;99.90;;;;;;4227303;28;20532;-63
2023/04/12 07:46:16;;;;;;;2.00;1.40;;;11.00;99.90;;;;;;4227495;28;20088;-65
2023/04/12 07:48:17;;;;;;;1.53;1.40;;;11.00;99.90;;;;;;4227005;28;20032;-62
2023/04/12 07:50:18;;;;;;;5.60;1.80;;;11.00;99.90;;;;;;4208769;28;20085;-64
2023/04/12 07:52:20;;;;;;;3.90;2.50;;;11.00;99.90;;;;;;4226727;28;20085;-66
2023/04/12 07:54:21;;;;;;;2.70;1.67;;;11.00;99.90;;;;;;4227253;28;20028;-63
2023/04/12 07:56:22;;;;;;;4.33;1.90;;;11.00;99.90;;;;;;4225962;28;20107;-66
2023/04/12 07:58:24;;;;;;;3.87;1.73;;;11.00;99.90;;;;;;4227742;28;20104;-63
2023/04/12 08:00:26;;;;;;;3.10;1.33;;;11.10;99.90;;;;;;4225930;28;20085;-68
2023/04/12 08:02:27;;;;;;;2.63;1.50;;;11.10;99.90;;;;;;4227680;28;20023;-63
2023/04/12 08:04:28;;;;;;;1.90;1.53;;;11.20;99.90;;;;;;4226696;28;20088;-62
2023/04/12 08:06:30;;;;;;;2.70;1.43;;;11.20;99.90;;;;;;4227873;28;20548;-62
2023/04/12 08:08:31;;;;;;;3.40;1.53;;;11.20;99.90;;;;;;4226456;28;20092;-63
2023/04/12 08:10:33;;;;;;;4.37;1.60;;;11.30;99.90;;;;;;4227303;28;20084;-64
2023/04/12 08:12:35;;;;;;;2.73;1.50;;;11.50;99.90;;;;;;4207629;28;20455;-69
2023/04/12 08:14:36;;;;;;;2.47;1.30;;;11.60;99.90;;;;;;4227004;28;20039;-61
2023/04/12 08:16:37;;;;;;;2.57;1.20;;;11.60;99.90;;;;;;4227307;28;20027;-71
2023/04/12 08:18:38;;;;;;;2.20;1.30;;;11.70;99.90;;;;;;4226641;28;20036;-68
2023/04/12 08:20:39;;;;;;;4.13;1.70;;;11.80;99.90;;;;;;4227337;28;20129;-62
2023/04/12 08:22:41;;;;;;;1.37;1.03;;;11.80;99.90;;;;;;4226477;28;20424;-62
2023/04/12 08:24:42;;;;;;;6.43;3.23;;;11.80;99.90;;;;;;4226551;28;20040;-63
2023/04/12 08:26:44;;;;;;;3.73;2.10;;;11.70;99.90;;;;;;4226183;28;20095;-63
2023/04/12 08:28:46;;;;;;;2.03;1.40;;;11.60;99.90;;;;;;4227216;28;20497;-64
2023/04/12 08:30:47;;;;;;;3.00;1.70;;;11.70;99.90;;;;;;4225922;28;20032;-67
2023/04/12 08:32:48;;;;;;;1.93;1.57;;;11.60;99.90;;;;;;4227447;28;20032;-66
2023/04/12 08:34:49;;;;;;;1.73;1.50;;;11.70;99.90;;;;;;4225514;28;20069;-66
2023/04/12 08:36:50;;;;;;;3.10;1.40;;;11.60;99.90;;;;;;4227349;28;20024;-62
2023/04/12 08:38:54;;;;;;;3.13;1.77;;;11.60;99.90;;;;;;4226162;28;20072;-62
2023/04/12 08:40:56;;;;;;;2.80;1.80;;;11.60;99.90;;;;;;4227026;28;20036;-65
2023/04/12 08:43:02;;;;;;;5.50;2.33;;;11.70;99.90;;;;;;4226097;28;20484;-67
2023/04/12 08:45:08;;;;;;;3.63;1.53;;;11.70;99.90;;;;;;4227481;28;20092;-67
2023/04/12 08:47:10;;;;;;;4.50;2.10;;;11.70;99.90;;;;;;4226550;28;20100;-64
2023/04/12 08:49:11;;;;;;;3.27;2.10;;;11.80;99.90;;;;;;4229185;28;20036;-62
2023/04/12 08:51:15;;;;;;;6.47;2.20;;;11.80;99.90;;;;;;4229678;28;20023;-62
2023/04/12 08:53:16;;;;;;;5.50;2.57;;;11.80;99.90;;;;;;4229694;28;20035;-64
2023/04/12 08:55:17;;;;;;;10.47;2.20;;;11.60;99.90;;;;;;4229854;28;20468;-66
2023/04/12 08:57:19;;;;;;;6.63;2.97;;;11.60;99.90;;;;;;4229163;28;20073;-63
2023/04/12 08:59:21;;;;;;;5.47;2.70;;;11.40;99.90;;;;;;4229520;28;20036;-63
2023/04/12 09:01:22;;;;;;;6.77;2.57;;;11.40;99.90;;;;;;4229110;28;20024;-63
2023/04/12 09:03:23;;;;;;;7.23;2.50;;;11.40;99.90;;;;;;4230332;28;20047;-63
2023/04/12 09:05:30;;;;;;;3.13;2.03;;;11.40;99.90;;;;;;4229170;28;20024;-62
2023/04/12 09:07:32;;;;;;;7.77;2.30;;;11.40;99.90;;;;;;4230050;28;20088;-62
2023/04/12 09:09:41;;;;;;;4.07;1.73;;;11.30;99.90;;;;;;4228755;28;20423;-72
2023/04/12 09:11:42;;;;;;;4.53;2.70;;;11.20;99.90;;;;;;4229252;28;20085;-63
2023/04/12 09:13:43;;;;;;;4.00;2.10;;;11.30;99.90;;;;;;4228847;28;20023;-63
2023/04/12 09:15:48;;;;;;;7.47;2.67;;;11.30;99.90;;;;;;4229795;28;20452;-62
2023/04/12 09:18:02;;;;;;;5.50;2.27;;;11.30;99.90;;;;;;4228039;28;20085;-63
2023/04/12 09:20:20;;;;;;;5.83;3.00;;;11.40;99.90;;;;;;4229893;28;20463;-63
2023/04/12 09:22:34;;;;;;;3.33;2.00;;;11.50;99.90;;;;;;4228800;28;20047;-67
2023/04/12 09:24:46;;;;;;;3.53;2.43;;;11.60;99.90;;;;;;4229945;28;20426;-62
2023/04/12 09:26:47;;;;;;;4.63;2.17;;;11.60;99.90;;;;;;4227762;28;20043;-62
2023/04/12 09:28:48;;;;;;;3.10;2.30;;;11.70;99.90;;;;;;4229821;28;20555;-62
2023/04/12 09:30:51;;;;;;;6.03;2.53;;;11.70;99.90;;;;;;4228300;28;20069;-62
2023/04/12 09:32:53;;;;;;;5.20;2.50;;;11.80;99.90;;;;;;4229049;28;20031;-63
2023/04/12 09:35:05;;;;;;;4.77;2.53;;;11.90;99.90;;;;;;4228660;28;20084;-62
2023/04/12 09:37:16;;;;;;;3.13;2.63;;;12.00;99.90;;;;;;4229765;28;20027;-62
2023/04/12 09:39:17;;;;;;;4.07;2.60;;;12.10;99.90;;;;;;4228486;28;20077;-61
2023/04/12 09:41:24;;;;;;;5.87;2.70;;;12.20;99.90;;;;;;4229562;28;20019;-62
2023/04/12 09:43:38;;;;;;;3.27;2.70;;;12.30;99.90;;;;;;4228471;28;20048;-61
2023/04/12 09:45:40;;;;;;;4.93;2.60;;;12.40;99.90;;;;;;4229838;28;20054;-62
2023/04/12 09:47:41;;;;;;;3.10;2.30;;;12.40;99.90;;;;;;4228471;28;20035;-62
2023/04/12 09:49:43;;;;;;;6.23;2.87;;;12.50;99.90;;;;;;4228581;28;20043;-63
2023/04/12 09:51:51;;;;;;;6.43;2.53;;;12.50;99.90;;;;;;4228053;28;20032;-69
2023/04/12 09:53:53;;;;;;;4.03;2.67;;;12.50;99.90;;;;;;4228896;28;20104;-70
2023/04/12 09:55:56;;;;;;;4.33;2.90;;;12.50;99.90;;;;;;4228297;28;20043;-62
2023/04/12 09:58:02;;;;;;;4.30;2.37;;;12.50;99.90;;;;;;4228095;28;20567;-63
2023/04/12 10:00:10;;;;;;;3.37;2.43;;;12.50;99.90;;;;;;4227320;28;20036;-60
2023/04/12 10:02:17;;;;;;;4.17;2.20;;;12.50;99.90;;;;;;4227869;28;20031;-63
2023/04/12 10:04:19;;;;;;;6.37;2.60;;;12.60;99.90;;;;;;4229076;28;20077;-62
2023/04/12 10:06:21;;;;;;;6.23;2.70;;;12.70;99.90;;;;;;4227212;28;20039;-61
2023/04/12 10:08:23;;;;;;;4.50;2.67;;;12.50;99.90;;;;;;4229183;28;20043;-62
2023/04/12 10:10:24;;;;;;;5.23;2.93;;;12.50;99.90;;;;;;4228211;28;20032;-63
2023/04/12 10:12:26;;;;;;;6.50;2.80;;;12.40;99.90;;;;;;4229078;28;20479;-62
2023/04/12 10:14:28;;;;;;;8.73;3.53;;;12.50;99.90;;;;;;4228056;28;20036;-65
2023/04/12 10:16:32;;;;;;;2.97;2.10;;;12.40;99.90;;;;;;4229726;28;20475;-62
2023/04/12 10:18:36;;;;;;;5.70;2.90;;;12.20;99.90;;;;;;4228170;28;20027;-65
2023/04/12 10:20:40;;;;;;;3.87;2.77;;;12.40;99.90;;;;;;4228455;28;20116;-61
2023/04/12 10:22:43;;;;;;;4.80;2.57;;;12.50;99.90;;;;;;4227778;28;20069;-62
2023/04/12 10:24:45;;;;;;;3.50;1.87;;;12.60;99.90;;;;;;4229034;28;20069;-63
2023/04/12 10:26:49;;;;;;;2.30;2.07;;;12.50;99.90;;;;;;4227768;28;20020;-62
2023/04/12 10:29:21;;;;;;;7.33;2.67;;;12.50;99.90;;;;;;4227646;28;20557;-61
2023/04/12 10:31:31;;;;;;;3.40;2.53;;;12.50;99.90;;;;;;4227808;28;20104;-63
2023/04/12 10:33:32;;;;;;;;;;;12.60;99.90;;;;;;4229495;28;20031;-62
2023/04/12 10:36:02;;;;;;;48.97;7.23;;;12.50;99.90;;;;;;4227619;28;19908;-67
2023/04/12 10:38:03;;;;;;;14.65;2.83;;;12.50;99.90;;;;;;4210350;28;20070;-70
2023/04/12 10:40:05;;;;;;;13.57;3.97;;;12.60;99.90;;;;;;4227496;28;20031;-61
2023/04/12 10:42:23;;;;;;;12.57;3.43;;;12.60;99.90;;;;;;4228489;28;20035;-62
2023/04/12 10:44:25;;;;;;;18.50;3.40;;;12.50;99.90;;;;;;4227696;28;20100;-68
2023/04/12 10:46:39;;;;;;;6.20;2.33;;;12.50;99.90;;;;;;4227934;28;20437;-68